sensor_id;sensor_type;location;lat;lon;timestamp;temperature;humidity
792;DHT22;379;49.022;12.148;2023-04-07T00:00:52;-1.60;99.90
792;DHT22;379;49.022;12.148;2023-04-07T00:03:19;-1.60;99.90
792;DHT22;379;49.022;12.148;2023-04-07T00:05:46;-1.60;99.90
792;DHT22;379;49.022;12.148;2023-04-07T00:08:12;-1.50;99.90
792;DHT22;379;49.022;12.148;2023-04-07T00:10:39;-1.50;99.90
792;DHT22;379;49.022;12.148;2023-04-07T00:13:07;-1.50;99.90
792;DHT22;379;49.022;12.148;2023-04-07T00:15:34;-1.60;99.90
792;DHT22;379;49.022;12.148;2023-04-07T00:18:01;-1.70;99.90
792;DHT22;379;49.022;12.148;2023-04-07T00:20:28;-1.80;99.90
792;DHT22;379;49.022;12.148;2023-04-07T00:22:54;-1.90;99.90
792;DHT22;379;49.022;12.148;2023-04-07T00:25:21;-1.90;99.90
792;DHT22;379;49.022;12.148;2023-04-07T00:27:48;-1.90;99.90
792;DHT22;379;49.022;12.148;2023-04-07T00:30:16;-1.80;99.90
792;DHT22;379;49.022;12.148;2023-04-07T00:32:43;-1.80;99.90
792;DHT22;379;49.022;12.148;2023-04-07T00:35:09;-1.70;99.90
792;DHT22;379;49.022;12.148;2023-04-07T00:37:36;-1.70;99.90
792;DHT22;379;49.022;12.148;2023-04-07T00:40:03;-1.70;99.90
792;DHT22;379;49.022;12.148;2023-04-07T00:42:32;-1.80;99.90
792;DHT22;379;49.022;12.148;2023-04-07T00:44:59;-1.90;99.90
792;DHT22;379;49.022;12.148;2023-04-07T00:47:27;-2.00;99.90
792;DHT22;379;49.022;12.148;2023-04-07T00:49:54;-2.00;99.90
792;DHT22;379;49.022;12.148;2023-04-07T00:52:21;-1.90;99.90
792;DHT22;379;49.022;12.148;2023-04-07T00:54:53;-2.10;99.90
792;DHT22;379;49.022;12.148;2023-04-07T00:57:20;-2.10;99.90
792;DHT22;379;49.022;12.148;2023-04-07T00:59:47;-2.20;99.90
792;DHT22;379;49.022;12.148;2023-04-07T01:02:16;-2.20;99.90
792;DHT22;379;49.022;12.148;2023-04-07T01:04:50;-2.20;99.90
792;DHT22;379;49.022;12.148;2023-04-07T01:07:22;-2.10;99.90
792;DHT22;379;49.022;12.148;2023-04-07T01:09:54;-2.20;99.90
792;DHT22;379;49.022;12.148;2023-04-07T01:12:30;-2.20;99.90
792;DHT22;379;49.022;12.148;2023-04-07T01:15:03;-2.30;99.90
792;DHT22;379;49.022;12.148;2023-04-07T01:17:34;-2.40;99.90
792;DHT22;379;49.022;12.148;2023-04-07T01:20:04;-2.60;99.90
792;DHT22;379;49.022;12.148;2023-04-07T01:22:38;-2.70;99.90
792;DHT22;379;49.022;12.148;2023-04-07T01:25:21;-2.80;99.90
792;DHT22;379;49.022;12.148;2023-04-07T01:27:58;-2.80;99.90
792;DHT22;379;49.022;12.148;2023-04-07T01:30:31;-2.70;99.90
792;DHT22;379;49.022;12.148;2023-04-07T01:32:59;-2.80;99.90
792;DHT22;379;49.022;12.148;2023-04-07T01:35:28;-2.80;99.90
792;DHT22;379;49.022;12.148;2023-04-07T01:37:56;-2.90;99.90
792;DHT22;379;49.022;12.148;2023-04-07T01:40:25;-2.90;99.90
792;DHT22;379;49.022;12.148;2023-04-07T01:42:53;-2.80;99.90
792;DHT22;379;49.022;12.148;2023-04-07T01:45:20;-2.80;99.90
792;DHT22;379;49.022;12.148;2023-04-07T01:47:49;-2.80;99.90
792;DHT22;379;49.022;12.148;2023-04-07T01:50:16;-2.70;99.90
792;DHT22;379;49.022;12.148;2023-04-07T01:52:43;-2.70;99.90
792;DHT22;379;49.022;12.148;2023-04-07T01:55:11;-2.70;99.90
792;DHT22;379;49.022;12.148;2023-04-07T01:57:37;-2.70;99.90
792;DHT22;379;49.022;12.148;2023-04-07T02:00:05;-2.70;99.90
792;DHT22;379;49.022;12.148;2023-04-07T02:02:35;-2.80;99.90
792;DHT22;379;49.022;12.148;2023-04-07T02:05:11;-2.80;99.90
792;DHT22;379;49.022;12.148;2023-04-07T02:07:47;-2.80;99.90
792;DHT22;379;49.022;12.148;2023-04-07T02:10:16;-2.80;99.90
792;DHT22;379;49.022;12.148;2023-04-07T02:12:46;-2.80;99.90
792;DHT22;379;49.022;12.148;2023-04-07T02:15:14;-2.80;99.90
792;DHT22;379;49.022;12.148;2023-04-07T02:17:45;-2.90;99.90
792;DHT22;379;49.022;12.148;2023-04-07T02:20:15;-2.90;99.90
792;DHT22;379;49.022;12.148;2023-04-07T02:22:43;-2.90;99.90
792;DHT22;379;49.022;12.148;2023-04-07T02:25:23;-3.00;99.90
792;DHT22;379;49.022;12.148;2023-04-07T02:27:51;-3.00;99.90
792;DHT22;379;49.022;12.148;2023-04-07T02:30:18;-3.10;99.90
792;DHT22;379;49.022;12.148;2023-04-07T02:32:45;-3.00;99.90
792;DHT22;379;49.022;12.148;2023-04-07T02:35:13;-3.00;99.90
792;DHT22;379;49.022;12.148;2023-04-07T02:37:40;-3.00;99.90
792;DHT22;379;49.022;12.148;2023-04-07T02:40:08;-3.00;99.90
792;DHT22;379;49.022;12.148;2023-04-07T02:42:35;-3.10;99.90
792;DHT22;379;49.022;12.148;2023-04-07T02:45:02;-3.00;99.90
792;DHT22;379;49.022;12.148;2023-04-07T02:47:29;-3.00;99.90
792;DHT22;379;49.022;12.148;2023-04-07T02:49:55;-2.90;99.90
792;DHT22;379;49.022;12.148;2023-04-07T02:52:23;-2.90;99.90
792;DHT22;379;49.022;12.148;2023-04-07T02:54:50;-2.90;99.90
792;DHT22;379;49.022;12.148;2023-04-07T02:57:17;-2.80;99.90
792;DHT22;379;49.022;12.148;2023-04-07T02:59:43;-2.80;99.90
792;DHT22;379;49.022;12.148;2023-04-07T03:02:10;-2.80;99.90
792;DHT22;379;49.022;12.148;2023-04-07T03:04:37;-2.80;99.90
792;DHT22;379;49.022;12.148;2023-04-07T03:07:04;-2.90;99.90
792;DHT22;379;49.022;12.148;2023-04-07T03:09:32;-2.90;99.90
792;DHT22;379;49.022;12.148;2023-04-07T03:11:59;-2.90;99.90
792;DHT22;379;49.022;12.148;2023-04-07T03:14:26;-2.90;99.90
792;DHT22;379;49.022;12.148;2023-04-07T03:16:53;-3.00;99.90
792;DHT22;379;49.022;12.148;2023-04-07T03:19:20;-3.20;99.90
792;DHT22;379;49.022;12.148;2023-04-07T03:21:47;-3.20;99.90
792;DHT22;379;49.022;12.148;2023-04-07T03:24:14;-3.10;99.90
792;DHT22;379;49.022;12.148;2023-04-07T03:26:42;-3.10;99.90
792;DHT22;379;49.022;12.148;2023-04-07T03:29:09;-3.00;99.90
792;DHT22;379;49.022;12.148;2023-04-07T03:31:35;-3.10;99.90
792;DHT22;379;49.022;12.148;2023-04-07T03:34:02;-3.10;99.90
792;DHT22;379;49.022;12.148;2023-04-07T03:36:29;-3.10;99.90
792;DHT22;379;49.022;12.148;2023-04-07T03:38:57;-3.10;99.90
792;DHT22;379;49.022;12.148;2023-04-07T03:41:24;-3.10;99.90
792;DHT22;379;49.022;12.148;2023-04-07T03:43:52;-3.10;99.90
792;DHT22;379;49.022;12.148;2023-04-07T03:46:19;-3.10;99.90
792;DHT22;379;49.022;12.148;2023-04-07T03:48:46;-3.00;99.90
792;DHT22;379;49.022;12.148;2023-04-07T03:51:12;-2.90;99.90
792;DHT22;379;49.022;12.148;2023-04-07T03:53:39;-2.90;99.90
792;DHT22;379;49.022;12.148;2023-04-07T03:56:06;-3.00;99.90
792;DHT22;379;49.022;12.148;2023-04-07T03:58:33;-3.20;99.90
792;DHT22;379;49.022;12.148;2023-04-07T04:01:01;-3.20;99.90
792;DHT22;379;49.022;12.148;2023-04-07T04:03:28;-3.10;99.90
792;DHT22;379;49.022;12.148;2023-04-07T04:05:54;-3.10;99.90
792;DHT22;379;49.022;12.148;2023-04-07T04:08:21;-3.10;99.90
792;DHT22;379;49.022;12.148;2023-04-07T04:10:48;-3.20;99.90
792;DHT22;379;49.022;12.148;2023-04-07T04:13:14;-3.20;99.90
792;DHT22;379;49.022;12.148;2023-04-07T04:15:41;-3.30;99.90
792;DHT22;379;49.022;12.148;2023-04-07T04:18:09;-3.30;99.90
792;DHT22;379;49.022;12.148;2023-04-07T04:20:36;-3.30;99.90
792;DHT22;379;49.022;12.148;2023-04-07T04:23:03;-3.40;99.90
792;DHT22;379;49.022;12.148;2023-04-07T04:25:29;-3.40;99.90
792;DHT22;379;49.022;12.148;2023-04-07T04:27:56;-3.40;99.90
792;DHT22;379;49.022;12.148;2023-04-07T04:30:23;-3.40;99.90
792;DHT22;379;49.022;12.148;2023-04-07T04:32:50;-3.40;99.90
792;DHT22;379;49.022;12.148;2023-04-07T04:35:18;-3.40;99.90
792;DHT22;379;49.022;12.148;2023-04-07T04:37:44;-3.40;99.90
792;DHT22;379;49.022;12.148;2023-04-07T04:40:12;-3.40;99.90
792;DHT22;379;49.022;12.148;2023-04-07T04:42:39;-3.40;99.90
792;DHT22;379;49.022;12.148;2023-04-07T04:45:06;-3.40;99.90
792;DHT22;379;49.022;12.148;2023-04-07T04:47:33;-3.40;99.90
792;DHT22;379;49.022;12.148;2023-04-07T04:50:00;-3.40;99.90
792;DHT22;379;49.022;12.148;2023-04-07T04:52:28;-3.40;99.90
792;DHT22;379;49.022;12.148;2023-04-07T04:54:56;-3.30;99.90
792;DHT22;379;49.022;12.148;2023-04-07T04:57:22;-3.30;99.90
792;DHT22;379;49.022;12.148;2023-04-07T04:59:49;-3.40;99.90
792;DHT22;379;49.022;12.148;2023-04-07T05:02:16;-3.40;99.90
792;DHT22;379;49.022;12.148;2023-04-07T05:04:42;-3.40;99.90
792;DHT22;379;49.022;12.148;2023-04-07T05:07:09;-3.30;99.90
792;DHT22;379;49.022;12.148;2023-04-07T05:09:37;-3.20;99.90
792;DHT22;379;49.022;12.148;2023-04-07T05:12:04;-3.00;99.90
792;DHT22;379;49.022;12.148;2023-04-07T05:14:31;-2.90;99.90
792;DHT22;379;49.022;12.148;2023-04-07T05:16:57;-2.80;99.90
792;DHT22;379;49.022;12.148;2023-04-07T05:19:25;-2.70;99.90
792;DHT22;379;49.022;12.148;2023-04-07T05:21:54;-2.70;99.90
792;DHT22;379;49.022;12.148;2023-04-07T05:24:20;-2.60;99.90
792;DHT22;379;49.022;12.148;2023-04-07T05:26:48;-2.50;99.90
792;DHT22;379;49.022;12.148;2023-04-07T05:29:15;-2.40;99.90
792;DHT22;379;49.022;12.148;2023-04-07T05:31:42;-2.30;99.90
792;DHT22;379;49.022;12.148;2023-04-07T05:34:08;-2.10;99.90
792;DHT22;379;49.022;12.148;2023-04-07T05:36:35;-1.60;99.90
792;DHT22;379;49.022;12.148;2023-04-07T05:39:02;-1.10;99.90
792;DHT22;379;49.022;12.148;2023-04-07T05:41:29;-0.50;99.90
792;DHT22;379;49.022;12.148;2023-04-07T05:43:57;0.10;99.90
792;DHT22;379;49.022;12.148;2023-04-07T05:46:23;0.70;99.90
792;DHT22;379;49.022;12.148;2023-04-07T05:48:50;1.20;99.90
792;DHT22;379;49.022;12.148;2023-04-07T05:51:17;1.50;99.90
792;DHT22;379;49.022;12.148;2023-04-07T05:53:44;1.60;99.90
792;DHT22;379;49.022;12.148;2023-04-07T05:56:10;1.90;99.90
792;DHT22;379;49.022;12.148;2023-04-07T05:58:37;2.20;99.90
792;DHT22;379;49.022;12.148;2023-04-07T06:01:05;2.70;99.90
792;DHT22;379;49.022;12.148;2023-04-07T06:03:32;3.20;99.90
792;DHT22;379;49.022;12.148;2023-04-07T06:05:58;3.40;99.90
792;DHT22;379;49.022;12.148;2023-04-07T06:08:25;3.70;99.90
792;DHT22;379;49.022;12.148;2023-04-07T06:10:52;4.00;99.90
792;DHT22;379;49.022;12.148;2023-04-07T06:13:19;4.60;99.90
792;DHT22;379;49.022;12.148;2023-04-07T06:15:45;4.90;99.90
792;DHT22;379;49.022;12.148;2023-04-07T06:18:14;5.30;99.10
792;DHT22;379;49.022;12.148;2023-04-07T06:20:40;5.70;96.50
792;DHT22;379;49.022;12.148;2023-04-07T06:23:07;6.00;94.80
792;DHT22;379;49.022;12.148;2023-04-07T06:25:34;6.20;94.10
792;DHT22;379;49.022;12.148;2023-04-07T06:28:00;6.30;93.10
792;DHT22;379;49.022;12.148;2023-04-07T06:30:27;6.70;90.60
792;DHT22;379;49.022;12.148;2023-04-07T06:32:54;7.10;83.20
792;DHT22;379;49.022;12.148;2023-04-07T06:35:22;7.40;76.40
792;DHT22;379;49.022;12.148;2023-04-07T06:37:51;7.60;72.60
792;DHT22;379;49.022;12.148;2023-04-07T06:40:17;7.70;70.90
792;DHT22;379;49.022;12.148;2023-04-07T06:42:44;7.80;69.30
792;DHT22;379;49.022;12.148;2023-04-07T06:45:11;8.00;67.90
792;DHT22;379;49.022;12.148;2023-04-07T06:47:38;8.10;65.40
792;DHT22;379;49.022;12.148;2023-04-07T06:50:05;8.10;62.60
792;DHT22;379;49.022;12.148;2023-04-07T06:52:34;8.00;62.40
792;DHT22;379;49.022;12.148;2023-04-07T06:55:00;8.00;62.80
792;DHT22;379;49.022;12.148;2023-04-07T06:57:27;8.00;62.20
792;DHT22;379;49.022;12.148;2023-04-07T06:59:54;8.00;60.00
792;DHT22;379;49.022;12.148;2023-04-07T07:02:21;7.90;60.00
792;DHT22;379;49.022;12.148;2023-04-07T07:04:48;7.80;61.50
792;DHT22;379;49.022;12.148;2023-04-07T07:07:15;7.80;63.40
792;DHT22;379;49.022;12.148;2023-04-07T07:09:43;8.00;61.50
792;DHT22;379;49.022;12.148;2023-04-07T07:12:09;8.10;62.00
792;DHT22;379;49.022;12.148;2023-04-07T07:14:36;8.20;60.90
792;DHT22;379;49.022;12.148;2023-04-07T07:17:03;8.20;60.30
792;DHT22;379;49.022;12.148;2023-04-07T07:19:29;8.00;60.40
792;DHT22;379;49.022;12.148;2023-04-07T07:21:56;7.80;62.20
792;DHT22;379;49.022;12.148;2023-04-07T07:24:23;7.60;64.00
792;DHT22;379;49.022;12.148;2023-04-07T07:26:51;7.50;65.70
792;DHT22;379;49.022;12.148;2023-04-07T07:29:17;7.60;64.60
792;DHT22;379;49.022;12.148;2023-04-07T07:31:45;7.80;62.50
792;DHT22;379;49.022;12.148;2023-04-07T07:34:12;7.80;61.80
792;DHT22;379;49.022;12.148;2023-04-07T07:36:39;7.70;62.90
792;DHT22;379;49.022;12.148;2023-04-07T07:39:05;7.50;63.80
792;DHT22;379;49.022;12.148;2023-04-07T07:41:32;7.50;64.60
792;DHT22;379;49.022;12.148;2023-04-07T07:44:00;7.50;64.20
792;DHT22;379;49.022;12.148;2023-04-07T07:46:27;7.40;64.50
792;DHT22;379;49.022;12.148;2023-04-07T07:48:53;7.30;65.30
792;DHT22;379;49.022;12.148;2023-04-07T07:51:21;7.20;66.10
792;DHT22;379;49.022;12.148;2023-04-07T07:53:47;7.30;66.40
792;DHT22;379;49.022;12.148;2023-04-07T07:56:14;7.30;65.80
792;DHT22;379;49.022;12.148;2023-04-07T07:58:41;7.30;65.80
792;DHT22;379;49.022;12.148;2023-04-07T08:01:09;7.40;65.70
792;DHT22;379;49.022;12.148;2023-04-07T08:03:36;7.50;64.90
792;DHT22;379;49.022;12.148;2023-04-07T08:06:02;7.40;64.60
792;DHT22;379;49.022;12.148;2023-04-07T08:08:30;7.50;63.90
792;DHT22;379;49.022;12.148;2023-04-07T08:10:56;7.60;64.80
792;DHT22;379;49.022;12.148;2023-04-07T08:13:23;7.60;65.30
792;DHT22;379;49.022;12.148;2023-04-07T08:15:50;7.70;62.90
792;DHT22;379;49.022;12.148;2023-04-07T08:18:18;7.70;62.90
792;DHT22;379;49.022;12.148;2023-04-07T08:20:45;7.70;62.30
792;DHT22;379;49.022;12.148;2023-04-07T08:23:11;7.60;62.20
792;DHT22;379;49.022;12.148;2023-04-07T08:25:38;7.60;62.20
792;DHT22;379;49.022;12.148;2023-04-07T08:28:05;7.60;63.30
792;DHT22;379;49.022;12.148;2023-04-07T08:30:32;7.70;64.60
792;DHT22;379;49.022;12.148;2023-04-07T08:32:58;7.70;65.50
792;DHT22;379;49.022;12.148;2023-04-07T08:35:27;7.80;66.10
792;DHT22;379;49.022;12.148;2023-04-07T08:37:53;7.90;66.20
792;DHT22;379;49.022;12.148;2023-04-07T08:40:20;7.80;66.20
792;DHT22;379;49.022;12.148;2023-04-07T08:42:47;7.90;66.60
792;DHT22;379;49.022;12.148;2023-04-07T08:45:16;8.00;66.50
792;DHT22;379;49.022;12.148;2023-04-07T08:47:43;8.10;63.60
792;DHT22;379;49.022;12.148;2023-04-07T08:50:12;8.10;63.70
792;DHT22;379;49.022;12.148;2023-04-07T08:52:44;8.20;64.80
792;DHT22;379;49.022;12.148;2023-04-07T08:55:11;8.20;65.20
792;DHT22;379;49.022;12.148;2023-04-07T08:57:39;8.40;65.40
792;DHT22;379;49.022;12.148;2023-04-07T09:00:07;8.50;65.30
792;DHT22;379;49.022;12.148;2023-04-07T09:02:36;8.60;65.30
792;DHT22;379;49.022;12.148;2023-04-07T09:05:04;8.60;65.40
792;DHT22;379;49.022;12.148;2023-04-07T09:07:32;8.70;65.60
792;DHT22;379;49.022;12.148;2023-04-07T09:10:01;8.70;65.70
792;DHT22;379;49.022;12.148;2023-04-07T09:12:28;8.80;65.80
792;DHT22;379;49.022;12.148;2023-04-07T09:14:55;8.90;63.40
792;DHT22;379;49.022;12.148;2023-04-07T09:17:24;8.90;63.40
792;DHT22;379;49.022;12.148;2023-04-07T09:19:52;8.90;64.50
792;DHT22;379;49.022;12.148;2023-04-07T09:22:33;9.00;65.10
792;DHT22;379;49.022;12.148;2023-04-07T09:25:12;9.10;65.20
792;DHT22;379;49.022;12.148;2023-04-07T09:27:39;9.20;65.20
792;DHT22;379;49.022;12.148;2023-04-07T09:30:10;9.30;65.20
792;DHT22;379;49.022;12.148;2023-04-07T09:32:39;9.40;64.50
792;DHT22;379;49.022;12.148;2023-04-07T09:35:07;9.40;64.30
792;DHT22;379;49.022;12.148;2023-04-07T09:37:33;9.50;64.40
792;DHT22;379;49.022;12.148;2023-04-07T09:40:00;9.60;64.00
792;DHT22;379;49.022;12.148;2023-04-07T09:42:29;9.80;63.90
792;DHT22;379;49.022;12.148;2023-04-07T09:44:57;9.80;63.30
792;DHT22;379;49.022;12.148;2023-04-07T09:47:27;10.00;62.20
792;DHT22;379;49.022;12.148;2023-04-07T09:49:55;10.10;61.90
792;DHT22;379;49.022;12.148;2023-04-07T09:52:25;10.20;61.10
792;DHT22;379;49.022;12.148;2023-04-07T09:55:12;10.30;60.70
792;DHT22;379;49.022;12.148;2023-04-07T09:57:40;10.40;60.00
792;DHT22;379;49.022;12.148;2023-04-07T10:00:09;10.50;59.80
792;DHT22;379;49.022;12.148;2023-04-07T10:02:36;10.50;59.80
792;DHT22;379;49.022;12.148;2023-04-07T10:05:04;10.60;59.40
792;DHT22;379;49.022;12.148;2023-04-07T10:07:31;10.60;58.90
792;DHT22;379;49.022;12.148;2023-04-07T10:09:58;10.70;56.60
792;DHT22;379;49.022;12.148;2023-04-07T10:12:26;10.60;56.50
792;DHT22;379;49.022;12.148;2023-04-07T10:14:54;10.60;57.90
792;DHT22;379;49.022;12.148;2023-04-07T10:17:21;10.70;58.30
792;DHT22;379;49.022;12.148;2023-04-07T10:19:49;10.80;57.90
792;DHT22;379;49.022;12.148;2023-04-07T10:22:16;10.90;57.40
792;DHT22;379;49.022;12.148;2023-04-07T10:24:50;10.90;54.40
792;DHT22;379;49.022;12.148;2023-04-07T10:27:23;10.80;55.00
792;DHT22;379;49.022;12.148;2023-04-07T10:29:54;10.70;55.60
792;DHT22;379;49.022;12.148;2023-04-07T10:32:22;10.80;55.70
792;DHT22;379;49.022;12.148;2023-04-07T10:34:56;10.60;53.10
792;DHT22;379;49.022;12.148;2023-04-07T10:37:24;10.50;53.10
792;DHT22;379;49.022;12.148;2023-04-07T10:43:00;10.50;55.00
792;DHT22;379;49.022;12.148;2023-04-07T10:45:54;10.60;55.70
792;DHT22;379;49.022;12.148;2023-04-07T10:48:24;10.70;55.40
792;DHT22;379;49.022;12.148;2023-04-07T10:51:15;10.80;55.60
792;DHT22;379;49.022;12.148;2023-04-07T10:57:11;10.90;55.30
792;DHT22;379;49.022;12.148;2023-04-07T10:59:40;11.00;55.30
792;DHT22;379;49.022;12.148;2023-04-07T11:02:31;11.10;55.50
792;DHT22;379;49.022;12.148;2023-04-07T11:04:59;11.20;55.80
792;DHT22;379;49.022;12.148;2023-04-07T11:07:45;11.20;55.10
792;DHT22;379;49.022;12.148;2023-04-07T11:10:13;11.20;54.70
792;DHT22;379;49.022;12.148;2023-04-07T11:12:41;11.30;54.60
792;DHT22;379;49.022;12.148;2023-04-07T11:15:18;11.30;53.50
792;DHT22;379;49.022;12.148;2023-04-07T11:18:05;11.30;53.50
792;DHT22;379;49.022;12.148;2023-04-07T11:20:40;11.30;53.60
792;DHT22;379;49.022;12.148;2023-04-07T11:23:07;11.40;53.90
792;DHT22;379;49.022;12.148;2023-04-07T11:25:34;11.60;54.00
792;DHT22;379;49.022;12.148;2023-04-07T11:28:02;11.60;51.50
792;DHT22;379;49.022;12.148;2023-04-07T11:30:29;11.60;51.30
792;DHT22;379;49.022;12.148;2023-04-07T11:32:58;11.70;51.80
792;DHT22;379;49.022;12.148;2023-04-07T11:35:24;11.80;51.50
792;DHT22;379;49.022;12.148;2023-04-07T11:37:56;12.00;51.30
792;DHT22;379;49.022;12.148;2023-04-07T11:40:33;12.10;50.50
792;DHT22;379;49.022;12.148;2023-04-07T11:43:02;12.20;45.40
792;DHT22;379;49.022;12.148;2023-04-07T11:45:29;12.30;46.70
792;DHT22;379;49.022;12.148;2023-04-07T11:47:57;12.30;46.30
792;DHT22;379;49.022;12.148;2023-04-07T11:50:40;12.40;47.10
792;DHT22;379;49.022;12.148;2023-04-07T11:53:07;12.50;47.80
792;DHT22;379;49.022;12.148;2023-04-07T11:55:34;12.60;48.00
792;DHT22;379;49.022;12.148;2023-04-07T11:58:07;12.70;47.60
792;DHT22;379;49.022;12.148;2023-04-07T12:00:52;12.70;47.50
792;DHT22;379;49.022;12.148;2023-04-07T12:03:20;12.80;47.40
792;DHT22;379;49.022;12.148;2023-04-07T12:05:47;12.90;47.80
792;DHT22;379;49.022;12.148;2023-04-07T12:08:14;13.10;47.80
792;DHT22;379;49.022;12.148;2023-04-07T12:10:41;13.20;48.00
792;DHT22;379;49.022;12.148;2023-04-07T12:13:08;13.40;48.30
792;DHT22;379;49.022;12.148;2023-04-07T12:15:35;13.50;45.90
792;DHT22;379;49.022;12.148;2023-04-07T12:18:02;13.50;44.10
792;DHT22;379;49.022;12.148;2023-04-07T12:20:30;13.50;44.90
792;DHT22;379;49.022;12.148;2023-04-07T12:22:57;13.70;45.20
792;DHT22;379;49.022;12.148;2023-04-07T12:25:25;13.90;45.00
792;DHT22;379;49.022;12.148;2023-04-07T12:27:52;14.00;43.80
792;DHT22;379;49.022;12.148;2023-04-07T12:30:19;13.90;42.80
792;DHT22;379;49.022;12.148;2023-04-07T12:32:45;14.00;43.40
792;DHT22;379;49.022;12.148;2023-04-07T12:35:12;14.10;44.20
792;DHT22;379;49.022;12.148;2023-04-07T12:37:40;14.20;43.50
792;DHT22;379;49.022;12.148;2023-04-07T12:40:07;14.30;43.40
792;DHT22;379;49.022;12.148;2023-04-07T12:42:34;14.40;43.90
792;DHT22;379;49.022;12.148;2023-04-07T12:45:01;14.40;44.20
792;DHT22;379;49.022;12.148;2023-04-07T12:47:28;14.40;43.90
792;DHT22;379;49.022;12.148;2023-04-07T12:49:55;14.30;43.70
792;DHT22;379;49.022;12.148;2023-04-07T12:52:22;14.40;43.70
792;DHT22;379;49.022;12.148;2023-04-07T12:54:50;14.30;42.50
792;DHT22;379;49.022;12.148;2023-04-07T12:57:17;14.10;42.40
792;DHT22;379;49.022;12.148;2023-04-07T12:59:45;14.00;43.10
792;DHT22;379;49.022;12.148;2023-04-07T13:02:11;13.90;43.90
792;DHT22;379;49.022;12.148;2023-04-07T13:04:39;13.80;44.20
792;DHT22;379;49.022;12.148;2023-04-07T13:07:08;13.70;43.60
792;DHT22;379;49.022;12.148;2023-04-07T13:09:34;13.50;43.80
792;DHT22;379;49.022;12.148;2023-04-07T13:12:02;13.40;44.50
792;DHT22;379;49.022;12.148;2023-04-07T13:14:29;13.30;45.00
792;DHT22;379;49.022;12.148;2023-04-07T13:16:56;13.20;45.30
792;DHT22;379;49.022;12.148;2023-04-07T13:19:22;13.10;45.30
792;DHT22;379;49.022;12.148;2023-04-07T13:21:49;13.00;45.20
792;DHT22;379;49.022;12.148;2023-04-07T13:24:16;12.90;45.70
792;DHT22;379;49.022;12.148;2023-04-07T13:26:43;12.80;45.60
792;DHT22;379;49.022;12.148;2023-04-07T13:29:11;12.70;45.30
792;DHT22;379;49.022;12.148;2023-04-07T13:31:37;12.60;44.70
792;DHT22;379;49.022;12.148;2023-04-07T13:34:04;12.60;44.80
792;DHT22;379;49.022;12.148;2023-04-07T13:36:31;12.60;45.50
792;DHT22;379;49.022;12.148;2023-04-07T13:38:58;12.50;45.70
792;DHT22;379;49.022;12.148;2023-04-07T13:41:26;12.60;45.80
792;DHT22;379;49.022;12.148;2023-04-07T13:43:53;12.50;45.40
792;DHT22;379;49.022;12.148;2023-04-07T13:46:22;12.50;45.30
792;DHT22;379;49.022;12.148;2023-04-07T13:48:49;12.40;44.70
792;DHT22;379;49.022;12.148;2023-04-07T13:51:16;12.40;45.20
792;DHT22;379;49.022;12.148;2023-04-07T13:53:43;12.40;44.90
792;DHT22;379;49.022;12.148;2023-04-07T13:56:09;12.40;43.60
792;DHT22;379;49.022;12.148;2023-04-07T13:58:36;12.40;44.30
792;DHT22;379;49.022;12.148;2023-04-07T14:01:03;12.50;44.30
792;DHT22;379;49.022;12.148;2023-04-07T14:03:31;12.50;43.00
792;DHT22;379;49.022;12.148;2023-04-07T14:05:59;12.60;43.80
792;DHT22;379;49.022;12.148;2023-04-07T14:08:26;12.70;44.20
792;DHT22;379;49.022;12.148;2023-04-07T14:10:53;12.80;44.40
792;DHT22;379;49.022;12.148;2023-04-07T14:13:20;13.00;44.90
792;DHT22;379;49.022;12.148;2023-04-07T14:15:47;13.10;44.80
792;DHT22;379;49.022;12.148;2023-04-07T14:18:15;13.20;43.90
792;DHT22;379;49.022;12.148;2023-04-07T14:20:43;13.30;43.50
792;DHT22;379;49.022;12.148;2023-04-07T14:23:09;13.30;42.70
792;DHT22;379;49.022;12.148;2023-04-07T14:25:36;13.50;43.00
792;DHT22;379;49.022;12.148;2023-04-07T14:28:03;13.60;43.70
792;DHT22;379;49.022;12.148;2023-04-07T14:30:30;13.70;41.50
792;DHT22;379;49.022;12.148;2023-04-07T14:32:58;13.70;41.90
792;DHT22;379;49.022;12.148;2023-04-07T14:35:25;13.80;42.60
792;DHT22;379;49.022;12.148;2023-04-07T14:37:53;14.00;42.90
792;DHT22;379;49.022;12.148;2023-04-07T14:40:21;14.20;43.00
792;DHT22;379;49.022;12.148;2023-04-07T14:42:47;14.40;42.10
792;DHT22;379;49.022;12.148;2023-04-07T14:45:15;14.50;41.10
792;DHT22;379;49.022;12.148;2023-04-07T14:47:42;14.60;41.70
792;DHT22;379;49.022;12.148;2023-04-07T14:50:09;14.80;41.90
792;DHT22;379;49.022;12.148;2023-04-07T14:52:37;14.90;42.00
792;DHT22;379;49.022;12.148;2023-04-07T14:55:06;15.00;41.70
792;DHT22;379;49.022;12.148;2023-04-07T14:57:33;15.00;41.10
792;DHT22;379;49.022;12.148;2023-04-07T14:59:59;15.00;41.20
792;DHT22;379;49.022;12.148;2023-04-07T15:02:26;14.90;40.70
792;DHT22;379;49.022;12.148;2023-04-07T15:04:53;14.80;38.40
792;DHT22;379;49.022;12.148;2023-04-07T15:07:20;14.70;39.30
792;DHT22;379;49.022;12.148;2023-04-07T15:09:47;14.60;37.70
792;DHT22;379;49.022;12.148;2023-04-07T15:12:15;14.40;37.40
792;DHT22;379;49.022;12.148;2023-04-07T15:14:42;14.10;37.70
792;DHT22;379;49.022;12.148;2023-04-07T15:17:09;14.00;38.40
792;DHT22;379;49.022;12.148;2023-04-07T15:19:36;13.90;38.50
792;DHT22;379;49.022;12.148;2023-04-07T15:22:02;13.80;38.10
792;DHT22;379;49.022;12.148;2023-04-07T15:24:29;13.70;38.50
792;DHT22;379;49.022;12.148;2023-04-07T15:26:56;13.60;38.40
792;DHT22;379;49.022;12.148;2023-04-07T15:29:24;13.60;39.10
792;DHT22;379;49.022;12.148;2023-04-07T15:31:51;13.50;39.50
792;DHT22;379;49.022;12.148;2023-04-07T15:34:17;13.50;39.90
792;DHT22;379;49.022;12.148;2023-04-07T15:36:44;13.50;40.20
792;DHT22;379;49.022;12.148;2023-04-07T15:39:11;13.50;40.90
792;DHT22;379;49.022;12.148;2023-04-07T15:41:37;13.50;41.00
792;DHT22;379;49.022;12.148;2023-04-07T15:44:04;13.40;39.50
792;DHT22;379;49.022;12.148;2023-04-07T15:46:32;13.40;39.20
792;DHT22;379;49.022;12.148;2023-04-07T15:48:59;13.40;39.00
792;DHT22;379;49.022;12.148;2023-04-07T15:51:26;13.30;38.90
792;DHT22;379;49.022;12.148;2023-04-07T15:53:54;13.30;39.20
792;DHT22;379;49.022;12.148;2023-04-07T15:56:21;13.30;39.70
792;DHT22;379;49.022;12.148;2023-04-07T15:58:49;13.30;39.50
792;DHT22;379;49.022;12.148;2023-04-07T16:01:15;13.40;39.20
792;DHT22;379;49.022;12.148;2023-04-07T16:03:43;13.40;40.00
792;DHT22;379;49.022;12.148;2023-04-07T16:06:11;13.30;38.70
792;DHT22;379;49.022;12.148;2023-04-07T16:08:38;13.20;38.80
792;DHT22;379;49.022;12.148;2023-04-07T16:11:05;13.20;38.90
792;DHT22;379;49.022;12.148;2023-04-07T16:13:31;13.10;39.10
792;DHT22;379;49.022;12.148;2023-04-07T16:15:58;13.10;38.90
792;DHT22;379;49.022;12.148;2023-04-07T16:18:25;13.10;39.30
792;DHT22;379;49.022;12.148;2023-04-07T16:20:53;13.00;39.40
792;DHT22;379;49.022;12.148;2023-04-07T16:23:20;13.00;39.50
792;DHT22;379;49.022;12.148;2023-04-07T16:25:47;12.90;40.30
792;DHT22;379;49.022;12.148;2023-04-07T16:28:13;12.80;40.90
792;DHT22;379;49.022;12.148;2023-04-07T16:30:41;12.70;41.60
792;DHT22;379;49.022;12.148;2023-04-07T16:33:08;12.60;41.50